createdAt,value
2018-10-21T00:00:49.023Z,5.52
2018-10-21T00:03:18.185Z,5.50
2018-10-21T00:05:47.274Z,5.33
2018-10-21T00:08:15.943Z,5.15
2018-10-21T00:10:45.250Z,5.02
2018-10-21T00:13:14.382Z,4.98
2018-10-21T00:15:43.643Z,4.98
2018-10-21T00:18:12.743Z,4.90
2018-10-21T00:20:41.920Z,4.92
2018-10-21T00:23:11.082Z,5.07
2018-10-21T00:25:40.406Z,5.06
2018-10-21T00:28:09.574Z,4.89
2018-10-21T00:30:38.770Z,4.91
2018-10-21T00:33:07.931Z,4.98
2018-10-21T00:35:37.062Z,5.05
2018-10-21T00:38:06.202Z,4.95
2018-10-21T00:40:35.350Z,4.93
2018-10-21T00:43:04.475Z,4.97
2018-10-21T00:45:33.631Z,4.79
2018-10-21T00:48:02.880Z,4.60
2018-10-21T00:50:32.182Z,4.58
2018-10-21T00:53:01.327Z,4.91
2018-10-21T00:55:30.479Z,4.91
2018-10-21T00:57:59.607Z,4.88
2018-10-21T01:00:28.725Z,4.86
2018-10-21T01:02:58.421Z,4.81
2018-10-21T01:05:27.213Z,4.65
2018-10-21T01:07:56.441Z,4.45
2018-10-21T01:10:25.558Z,4.35
2018-10-21T01:12:54.706Z,4.31
2018-10-21T01:15:23.893Z,4.22
2018-10-21T01:17:53.014Z,4.16
2018-10-21T01:20:22.166Z,4.24
2018-10-21T01:22:51.359Z,4.53
2018-10-21T01:25:20.493Z,4.64
2018-10-21T01:27:50.306Z,4.75
2018-10-21T01:30:19.471Z,4.96
2018-10-21T01:32:49.411Z,5.13
2018-10-21T01:35:18.554Z,5.15
2018-10-21T01:37:48.124Z,5.05
2018-10-21T01:40:36.005Z,5.02
2018-10-21T01:43:06.240Z,5.00
2018-10-21T01:45:35.397Z,5.02
2018-10-21T01:48:05.915Z,5.12
2018-10-21T01:50:35.134Z,5.18
2018-10-21T01:53:05.445Z,5.20
2018-10-21T01:55:34.675Z,5.35
2018-10-21T01:58:03.889Z,5.44
2018-10-21T02:00:33.613Z,5.41
2018-10-21T02:03:03.004Z,5.42
2018-10-21T02:05:32.810Z,5.46
2018-10-21T02:08:02.026Z,5.66
2018-10-21T02:10:31.223Z,5.74
2018-10-21T02:13:00.350Z,5.79
2018-10-21T02:15:29.507Z,5.60
2018-10-21T02:17:59.094Z,5.73
2018-10-21T02:20:28.382Z,5.95
2018-10-21T02:22:57.526Z,6.14
2018-10-21T02:25:29.703Z,6.06
2018-10-21T02:27:58.941Z,6.11
2018-10-21T02:30:29.287Z,6.13
2018-10-21T02:32:59.429Z,6.14
2018-10-21T02:35:28.554Z,6.12
2018-10-21T02:37:58.414Z,6.18
2018-10-21T02:41:44.297Z,6.20
2018-10-21T02:44:19.830Z,6.25
2018-10-21T02:46:49.753Z,6.28
2018-10-21T02:49:19.611Z,6.37
2018-10-21T02:51:53.900Z,6.41
2018-10-21T02:54:26.047Z,6.31
2018-10-21T02:56:55.349Z,6.36
2018-10-21T02:59:24.886Z,6.44
2018-10-21T03:01:54.061Z,6.49
2018-10-21T03:04:23.610Z,6.25
2018-10-21T03:06:53.118Z,6.25
2018-10-21T03:09:22.497Z,6.20
2018-10-21T03:11:51.327Z,6.10
2018-10-21T03:14:20.453Z,6.19
2018-10-21T03:16:49.600Z,6.03
2018-10-21T03:19:18.755Z,6.02
2018-10-21T03:21:47.973Z,6.08
2018-10-21T03:24:17.189Z,6.01
2018-10-21T03:26:46.982Z,5.98
2018-10-21T03:29:16.130Z,6.08
2018-10-21T03:31:45.295Z,6.17
2018-10-21T03:34:14.459Z,6.18
2018-10-21T03:36:43.646Z,6.31
2018-10-21T03:39:12.809Z,6.19
2018-10-21T03:41:41.949Z,6.16
2018-10-21T03:44:11.074Z,6.12
2018-10-21T03:46:40.259Z,6.09
2018-10-21T03:49:09.409Z,6.03
2018-10-21T03:51:38.542Z,6.02
2018-10-21T03:54:07.665Z,5.97
2018-10-21T03:56:37.218Z,5.98
2018-10-21T03:59:06.321Z,5.95
2018-10-21T04:01:35.445Z,5.97
2018-10-21T04:04:04.628Z,5.93
2018-10-21T04:06:34.163Z,5.94
2018-10-21T04:09:03.382Z,5.90
2018-10-21T04:11:32.607Z,5.91
2018-10-21T04:14:02.522Z,6.01
2018-10-21T04:16:31.743Z,6.04
2018-10-21T04:19:00.985Z,5.97
2018-10-21T04:21:30.930Z,6.01
2018-10-21T04:24:00.042Z,5.99
2018-10-21T04:26:29.165Z,6.00
2018-10-21T04:28:58.283Z,5.82
2018-10-21T04:31:27.782Z,5.94
2018-10-21T04:33:56.988Z,5.93
2018-10-21T04:36:31.666Z,5.75
2018-10-21T04:39:43.237Z,5.53
2018-10-21T04:42:12.405Z,5.51
2018-10-21T04:44:41.584Z,5.33
2018-10-21T04:47:10.954Z,5.28
2018-10-21T04:49:40.105Z,5.38
2018-10-21T04:52:09.387Z,5.53
2018-10-21T04:54:38.813Z,5.51
2018-10-21T04:57:08.797Z,5.47
2018-10-21T04:59:39.130Z,5.44
2018-10-21T05:02:08.454Z,5.37
2018-10-21T05:04:37.602Z,5.44
2018-10-21T05:07:07.462Z,5.46
2018-10-21T05:09:36.221Z,5.51
2018-10-21T05:12:06.551Z,5.52
2018-10-21T05:14:34.846Z,5.23
2018-10-21T05:17:04.048Z,5.11
2018-10-21T05:19:33.200Z,5.08
2018-10-21T05:22:02.445Z,5.23
2018-10-21T05:24:31.578Z,5.32
2018-10-21T05:27:00.777Z,5.40
2018-10-21T05:29:30.050Z,5.23
2018-10-21T05:31:59.182Z,5.17
2018-10-21T05:34:28.385Z,5.17
2018-10-21T05:36:57.525Z,5.12
2018-10-21T05:39:26.686Z,5.14
2018-10-21T05:41:55.823Z,5.12
2018-10-21T05:44:24.995Z,5.14
2018-10-21T05:46:54.909Z,5.20
2018-10-21T05:49:23.965Z,5.18
2018-10-21T05:51:53.251Z,5.30
2018-10-21T05:54:22.850Z,5.31
2018-10-21T05:56:52.414Z,5.30
2018-10-21T05:59:21.605Z,5.24
2018-10-21T06:01:50.765Z,5.30
2018-10-21T06:04:19.899Z,5.30
2018-10-21T06:06:49.049Z,5.37
2018-10-21T06:09:18.246Z,5.38
2018-10-21T06:11:47.386Z,5.45
2018-10-21T06:14:16.530Z,5.30
2018-10-21T06:16:50.325Z,5.29
2018-10-21T06:19:27.509Z,5.38
2018-10-21T06:21:56.694Z,5.38
2018-10-21T06:24:25.972Z,5.52
2018-10-21T06:26:57.458Z,5.53
2018-10-21T06:29:33.517Z,5.57
2018-10-21T06:32:02.706Z,5.63
2018-10-21T06:34:31.908Z,5.62
2018-10-21T06:37:01.133Z,5.62
2018-10-21T06:39:30.324Z,5.67
2018-10-21T06:41:59.476Z,5.48
2018-10-21T06:44:29.121Z,5.55
2018-10-21T06:46:58.249Z,5.62
2018-10-21T06:49:27.394Z,5.58
2018-10-21T06:51:56.612Z,5.81
2018-10-21T06:54:25.734Z,5.77
2018-10-21T06:56:55.099Z,5.91
2018-10-21T06:59:24.145Z,6.11
2018-10-21T07:01:53.290Z,6.29
2018-10-21T07:04:22.748Z,6.29
2018-10-21T07:06:52.195Z,6.47
2018-10-21T07:09:21.998Z,6.78
2018-10-21T07:11:52.019Z,6.93
2018-10-21T07:14:20.406Z,7.30
2018-10-21T07:16:50.208Z,7.36
2018-10-21T07:19:20.683Z,7.53
2018-10-21T07:21:50.489Z,7.66
2018-10-21T07:24:19.643Z,7.77
2018-10-21T07:26:48.845Z,7.70
2018-10-21T07:29:17.994Z,7.83
2018-10-21T07:31:47.339Z,8.16
2018-10-21T07:34:16.554Z,8.33
2018-10-21T07:36:45.666Z,8.45
2018-10-21T07:39:14.808Z,8.58
2018-10-21T07:41:44.070Z,9.08
2018-10-21T07:44:13.202Z,9.52
2018-10-21T07:46:42.323Z,10.00
2018-10-21T07:49:11.533Z,10.09
2018-10-21T07:51:40.677Z,9.87
2018-10-21T07:54:10.650Z,10.19
2018-10-21T07:56:41.429Z,10.13
2018-10-21T07:59:10.529Z,9.92
2018-10-21T08:01:40.439Z,9.43
2018-10-21T08:04:10.795Z,9.70
2018-10-21T08:06:56.740Z,9.66
2018-10-21T08:09:25.928Z,9.83
2018-10-21T08:11:55.065Z,10.81
2018-10-21T08:14:24.204Z,11.28
2018-10-21T08:16:53.766Z,12.92
2018-10-21T08:19:22.881Z,13.44
2018-10-21T08:21:52.068Z,13.36
2018-10-21T08:24:21.897Z,12.30
2018-10-21T08:26:51.646Z,11.43
2018-10-21T08:29:20.956Z,10.73
2018-10-21T08:31:50.256Z,10.98
2018-10-21T08:34:19.421Z,11.20
2018-10-21T08:36:48.718Z,11.10
2018-10-21T08:39:17.838Z,10.91
2018-10-21T08:41:47.329Z,11.67
2018-10-21T08:44:16.554Z,12.56
2018-10-21T08:46:45.853Z,12.75
2018-10-21T08:49:15.055Z,14.13
2018-10-21T08:51:44.110Z,16.68
2018-10-21T08:54:13.227Z,20.93
2018-10-21T08:56:42.593Z,21.80
2018-10-21T08:59:11.706Z,22.35
2018-10-21T09:01:40.823Z,22.34
2018-10-21T09:04:10.785Z,21.04
2018-10-21T09:06:39.805Z,21.56
2018-10-21T09:09:10.610Z,20.40
2018-10-21T09:11:40.137Z,20.27
2018-10-21T09:14:10.565Z,20.02
2018-10-21T09:16:39.874Z,22.57
2018-10-21T09:19:09.005Z,23.18
2018-10-21T09:21:38.143Z,24.18
2018-10-21T09:24:07.254Z,23.75
2018-10-21T09:26:36.655Z,24.78
2018-10-21T09:29:06.279Z,26.15
2018-10-21T09:31:35.402Z,24.47
2018-10-21T09:34:04.883Z,25.69
2018-10-21T09:36:34.015Z,20.38
2018-10-21T09:39:03.145Z,22.69
2018-10-21T09:41:32.306Z,21.44
2018-10-21T09:44:01.691Z,20.42
2018-10-21T09:46:30.835Z,23.00
2018-10-21T09:49:00.201Z,24.57
2018-10-21T09:51:30.121Z,24.60
2018-10-21T09:53:59.237Z,25.40
2018-10-21T09:56:28.348Z,26.49
2018-10-21T09:58:57.488Z,26.65
2018-10-21T10:01:31.906Z,23.58
2018-10-21T10:04:01.413Z,20.93
2018-10-21T10:06:30.477Z,18.98
2018-10-21T10:08:59.594Z,18.59
2018-10-21T10:11:29.134Z,17.79
2018-10-21T10:13:58.398Z,19.06
2018-10-21T10:16:27.775Z,19.27
2018-10-21T10:18:56.994Z,18.17
2018-10-21T10:21:26.090Z,16.70
2018-10-21T10:23:56.133Z,14.79
2018-10-21T10:26:25.202Z,14.15
2018-10-21T10:28:54.362Z,14.05
2018-10-21T10:31:23.781Z,13.89
2018-10-21T10:33:52.947Z,13.49
2018-10-21T10:36:22.228Z,13.30
2018-10-21T10:38:51.861Z,13.10
2018-10-21T10:41:21.293Z,13.14
2018-10-21T10:43:50.418Z,13.16
2018-10-21T10:46:19.568Z,13.26
2018-10-21T10:48:48.677Z,13.18
2018-10-21T10:51:17.786Z,13.23
2018-10-21T10:53:47.047Z,13.03
2018-10-21T10:56:16.194Z,13.11
2018-10-21T10:58:45.327Z,13.30
2018-10-21T11:01:14.537Z,13.44
2018-10-21T11:03:43.627Z,13.59
2018-10-21T11:06:13.020Z,13.80
2018-10-21T11:08:42.157Z,13.73
2018-10-21T11:11:11.282Z,13.82
2018-10-21T11:13:40.577Z,13.91
2018-10-21T11:16:10.450Z,13.97
2018-10-21T11:18:39.694Z,14.09
2018-10-21T11:21:14.738Z,14.24
2018-10-21T11:23:43.915Z,14.32
2018-10-21T11:26:13.747Z,14.15
2018-10-21T11:28:42.870Z,14.23
2018-10-21T11:31:12.091Z,14.33
2018-10-21T11:33:41.137Z,14.29
2018-10-21T11:36:10.250Z,14.45
2018-10-21T11:38:40.113Z,14.47
2018-10-21T11:41:09.936Z,14.50
2018-10-21T11:43:39.063Z,14.50
2018-10-21T11:46:08.435Z,14.56
2018-10-21T11:48:38.038Z,14.51
2018-10-21T11:51:07.141Z,14.60
2018-10-21T11:53:36.307Z,14.56
2018-10-21T11:56:05.444Z,14.64
2018-10-21T11:58:34.584Z,14.73
2018-10-21T12:01:04.121Z,14.66
2018-10-21T12:03:33.233Z,14.64
2018-10-21T12:06:02.665Z,14.71
2018-10-21T12:08:32.503Z,14.76
2018-10-21T12:11:01.627Z,14.73
2018-10-21T12:13:30.741Z,14.74
2018-10-21T12:16:00.158Z,14.79
2018-10-21T12:18:29.233Z,14.58
2018-10-21T12:20:58.358Z,14.71
2018-10-21T12:23:27.624Z,14.86
2018-10-21T12:25:56.718Z,14.89
2018-10-21T12:28:25.841Z,14.94
2018-10-21T12:30:55.004Z,15.00
2018-10-21T12:33:24.166Z,14.90
2018-10-21T12:35:53.357Z,15.02
2018-10-21T12:38:22.453Z,14.98
2018-10-21T12:40:51.582Z,15.03
2018-10-21T12:43:20.750Z,15.06
2018-10-21T12:45:50.482Z,15.06
2018-10-21T12:48:19.587Z,15.11
2018-10-21T12:50:48.737Z,15.19
2018-10-21T12:53:17.843Z,15.22
2018-10-21T12:55:50.497Z,15.26
2018-10-21T12:58:19.957Z,15.25
2018-10-21T13:00:49.101Z,15.19
2018-10-21T13:03:18.365Z,15.22
2018-10-21T13:05:47.479Z,15.08
2018-10-21T13:08:19.832Z,15.12
2018-10-21T13:10:48.977Z,15.21
2018-10-21T13:13:18.101Z,15.30
2018-10-21T13:15:46.890Z,15.18
2018-10-21T13:18:16.062Z,15.30
2018-10-21T13:20:45.198Z,15.26
2018-10-21T13:23:14.359Z,15.22
2018-10-21T13:25:43.471Z,15.22
2018-10-21T13:28:12.661Z,15.13
2018-10-21T13:30:42.173Z,15.26
2018-10-21T13:33:11.299Z,15.31
2018-10-21T13:35:40.462Z,15.29
2018-10-21T13:38:09.992Z,15.27
2018-10-21T13:40:39.151Z,15.18
2018-10-21T13:43:08.602Z,15.23
2018-10-21T13:45:37.742Z,15.34
2018-10-21T13:48:07.150Z,15.18
2018-10-21T13:50:36.397Z,15.14
2018-10-21T13:53:05.630Z,15.22
2018-10-21T13:55:34.779Z,15.17
2018-10-21T13:58:04.196Z,15.32
2018-10-21T14:00:33.386Z,15.29
2018-10-21T14:03:02.433Z,15.29
2018-10-21T14:05:31.549Z,15.25
2018-10-21T14:08:00.702Z,15.23
2018-10-21T14:10:29.890Z,15.21
2018-10-21T14:12:59.072Z,15.28
2018-10-21T14:15:29.489Z,15.17
2018-10-21T14:17:58.804Z,15.08
2018-10-21T14:20:27.938Z,14.92
2018-10-21T14:22:57.062Z,15.07
2018-10-21T14:25:27.244Z,15.12
2018-10-21T14:27:56.435Z,15.00
2018-10-21T14:30:25.555Z,15.04
2018-10-21T14:32:54.817Z,15.05
2018-10-21T14:35:23.921Z,14.91
2018-10-21T14:37:53.069Z,14.92
2018-10-21T14:40:22.169Z,14.94
2018-10-21T14:42:51.282Z,14.86
2018-10-21T14:45:20.477Z,14.95
2018-10-21T14:47:51.309Z,14.91
2018-10-21T14:50:20.838Z,14.89
2018-10-21T14:52:49.961Z,14.75
2018-10-21T14:55:19.209Z,14.74
2018-10-21T14:57:48.366Z,14.77
2018-10-21T15:00:17.538Z,14.78
2018-10-21T15:02:46.607Z,14.63
2018-10-21T15:05:16.278Z,14.55
2018-10-21T15:07:46.822Z,14.55
2018-10-21T15:10:16.155Z,14.47
2018-10-21T15:12:45.194Z,14.43
2018-10-21T15:15:14.298Z,14.51
2018-10-21T15:17:43.406Z,14.32
2018-10-21T15:20:13.974Z,14.11
2018-10-21T15:22:44.630Z,14.14
2018-10-21T15:25:13.765Z,14.03
2018-10-21T15:27:42.911Z,13.94
2018-10-21T15:30:12.987Z,13.89
2018-10-21T15:32:42.076Z,13.80
2018-10-21T15:35:11.214Z,13.73
2018-10-21T15:37:41.289Z,13.69
2018-10-21T15:40:11.239Z,13.67
2018-10-21T15:42:40.366Z,13.67
2018-10-21T15:45:10.954Z,13.47
2018-10-21T15:47:40.109Z,13.37
2018-10-21T15:50:09.642Z,13.28
2018-10-21T15:52:38.782Z,13.34
2018-10-21T15:55:08.923Z,13.18
2018-10-21T15:57:38.130Z,13.03
2018-10-21T16:00:10.130Z,12.91
2018-10-21T16:02:39.373Z,12.79
2018-10-21T16:05:09.737Z,12.57
2018-10-21T16:07:38.931Z,12.28
2018-10-21T16:10:09.264Z,12.00
2018-10-21T16:12:38.509Z,11.89
2018-10-21T16:15:11.334Z,11.60
2018-10-21T16:17:40.546Z,11.67
2018-10-21T16:20:09.721Z,11.43
2018-10-21T16:22:41.014Z,11.34
2018-10-21T16:25:12.090Z,11.15
2018-10-21T16:27:41.584Z,11.11
2018-10-21T16:30:13.528Z,11.12
2018-10-21T16:32:43.315Z,11.18
2018-10-21T16:35:13.762Z,11.07
2018-10-21T16:37:43.010Z,11.01
2018-10-21T16:40:15.529Z,10.85
2018-10-21T16:42:45.046Z,10.68
2018-10-21T16:45:14.943Z,10.58
2018-10-21T16:47:44.092Z,10.47
2018-10-21T16:50:15.600Z,10.48
2018-10-21T16:52:45.807Z,10.40
2018-10-21T16:55:15.528Z,10.37
2018-10-21T16:57:44.653Z,10.26
2018-10-21T17:00:16.491Z,10.04
2018-10-21T17:02:45.858Z,9.89
2018-10-21T17:05:15.077Z,9.67
2018-10-21T17:07:44.157Z,9.65
2018-10-21T17:10:13.726Z,9.65
2018-10-21T17:12:42.534Z,9.51
2018-10-21T17:15:12.122Z,9.47
2018-10-21T17:17:42.075Z,9.37
2018-10-21T17:20:13.203Z,9.17
2018-10-21T17:22:43.582Z,9.17
2018-10-21T17:25:13.042Z,9.05
2018-10-21T17:27:42.379Z,8.87
2018-10-21T17:30:18.262Z,8.68
2018-10-21T17:32:47.904Z,8.50
2018-10-21T17:35:17.012Z,8.40
2018-10-21T17:37:46.193Z,8.26
2018-10-21T17:40:15.417Z,8.22
2018-10-21T17:42:44.518Z,8.07
2018-10-21T17:45:14.762Z,7.96
2018-10-21T17:47:44.063Z,8.06
2018-10-21T17:50:14.388Z,8.19
2018-10-21T17:52:44.559Z,8.16
2018-10-21T17:55:13.987Z,8.12
2018-10-21T17:57:43.283Z,8.06
2018-10-21T18:00:13.373Z,7.95
2018-10-21T18:02:42.151Z,7.88
2018-10-21T18:05:13.697Z,7.82
2018-10-21T18:07:43.186Z,7.78
2018-10-21T18:10:12.959Z,7.78
2018-10-21T18:12:41.985Z,7.83
2018-10-21T18:15:11.879Z,7.72
2018-10-21T18:17:41.577Z,7.83
2018-10-21T18:20:12.162Z,7.94
2018-10-21T18:22:41.277Z,7.89
2018-10-21T18:25:11.017Z,7.65
2018-10-21T18:27:40.530Z,7.41
2018-10-21T18:30:11.170Z,7.15
2018-10-21T18:32:40.919Z,7.02
2018-10-21T18:35:12.659Z,6.94
2018-10-21T18:37:41.912Z,6.87
2018-10-21T18:40:11.865Z,6.79
2018-10-21T18:42:41.260Z,6.81
2018-10-21T18:45:12.725Z,6.89
2018-10-21T18:47:42.425Z,6.68
2018-10-21T18:50:13.283Z,6.38
2018-10-21T18:52:42.429Z,6.21
2018-10-21T18:55:12.645Z,6.21
2018-10-21T18:57:42.580Z,6.21
2018-10-21T19:00:15.078Z,6.20
2018-10-21T19:02:44.273Z,6.26
2018-10-21T19:05:14.058Z,6.20
2018-10-21T19:07:43.577Z,6.12
2018-10-21T19:10:14.122Z,6.16
2018-10-21T19:12:43.645Z,6.17
2018-10-21T19:15:14.721Z,6.11
2018-10-21T19:17:44.478Z,6.16
2018-10-21T19:20:16.067Z,6.06
2018-10-21T19:22:45.202Z,5.98
2018-10-21T19:25:15.988Z,5.92
2018-10-21T19:27:45.674Z,5.94
2018-10-21T19:30:15.989Z,5.78
2018-10-21T19:32:45.188Z,5.73
2018-10-21T19:35:15.849Z,5.62
2018-10-21T19:37:44.990Z,5.62
2018-10-21T19:40:15.504Z,5.57
2018-10-21T19:42:45.467Z,5.59
2018-10-21T19:45:15.221Z,5.70
2018-10-21T19:47:44.407Z,5.77
2018-10-21T19:50:15.423Z,5.68
2018-10-21T19:52:44.925Z,5.68
2018-10-21T19:55:14.535Z,5.60
2018-10-21T19:57:44.693Z,5.59
2018-10-21T20:00:16.295Z,5.58
2018-10-21T20:02:45.989Z,5.52
2018-10-21T20:05:14.913Z,5.53
2018-10-21T20:07:44.086Z,5.44
2018-10-21T20:10:14.529Z,5.39
2018-10-21T20:12:43.592Z,5.26
2018-10-21T20:15:13.518Z,4.93
2018-10-21T20:17:42.785Z,4.72
2018-10-21T20:20:12.600Z,4.54
2018-10-21T20:22:42.329Z,4.40
2018-10-21T20:25:12.322Z,4.38
2018-10-21T20:27:41.361Z,4.31
2018-10-21T20:30:12.444Z,4.62
2018-10-21T20:32:41.881Z,4.79
2018-10-21T20:35:12.317Z,4.90
2018-10-21T20:37:41.473Z,4.79
2018-10-21T20:40:12.497Z,4.81
2018-10-21T20:42:41.533Z,4.79
2018-10-21T20:45:11.981Z,4.73
2018-10-21T20:47:41.105Z,4.62
2018-10-21T20:50:10.976Z,4.59
2018-10-21T20:52:40.169Z,4.33
2018-10-21T20:55:09.825Z,4.04
2018-10-21T20:57:38.685Z,3.80
2018-10-21T21:00:07.893Z,3.74
2018-10-21T21:02:37.441Z,3.67
2018-10-21T21:05:08.978Z,3.69
2018-10-21T21:07:39.185Z,3.84
2018-10-21T21:10:09.310Z,3.81
2018-10-21T21:12:38.426Z,3.83
2018-10-21T21:15:08.354Z,3.87
2018-10-21T21:17:38.261Z,3.83
2018-10-21T21:20:08.423Z,3.94
2018-10-21T21:22:38.288Z,3.87
2018-10-21T21:25:07.873Z,3.92
2018-10-21T21:27:37.174Z,3.93
2018-10-21T21:30:07.633Z,3.84
2018-10-21T21:32:37.761Z,3.73
2018-10-21T21:35:07.806Z,3.84
2018-10-21T21:37:36.895Z,4.01
2018-10-21T21:40:08.339Z,4.01
2018-10-21T21:42:38.585Z,3.98
2018-10-21T21:45:08.959Z,3.86
2018-10-21T21:47:39.562Z,3.68
2018-10-21T21:50:09.543Z,3.43
2018-10-21T21:52:39.537Z,3.25
2018-10-21T21:55:08.865Z,3.12
2018-10-21T21:57:37.715Z,3.04
2018-10-21T22:00:11.067Z,3.18
2018-10-21T22:02:40.329Z,3.52
2018-10-21T22:05:10.595Z,3.51
2018-10-21T22:07:41.197Z,3.14
2018-10-21T22:10:13.556Z,3.14
2018-10-21T22:12:43.622Z,3.09
2018-10-21T22:15:12.962Z,2.94
2018-10-21T22:17:42.638Z,3.15
2018-10-21T22:20:12.824Z,3.16
2018-10-21T22:22:42.306Z,3.21
2018-10-21T22:25:12.052Z,3.30
2018-10-21T22:27:41.951Z,3.33
2018-10-21T22:30:11.621Z,3.09
2018-10-21T22:32:40.972Z,2.90
2018-10-21T22:35:10.398Z,2.79
2018-10-21T22:37:39.509Z,2.87
2018-10-21T22:40:08.694Z,3.04
2018-10-21T22:42:38.177Z,3.16
2018-10-21T22:45:08.588Z,3.11
2018-10-21T22:47:37.774Z,2.96
2018-10-21T22:50:09.719Z,3.02
2018-10-21T22:52:38.882Z,3.14
2018-10-21T22:55:09.121Z,3.00
2018-10-21T22:57:38.411Z,2.85
2018-10-21T23:00:09.195Z,2.68
2018-10-21T23:02:38.386Z,2.62
2018-10-21T23:05:08.267Z,2.54
2018-10-21T23:07:38.166Z,2.52
2018-10-21T23:10:07.376Z,2.66
2018-10-21T23:12:36.818Z,2.72
2018-10-21T23:15:06.706Z,2.65
2018-10-21T23:17:36.470Z,2.60
2018-10-21T23:20:07.290Z,2.42
2018-10-21T23:22:36.818Z,2.25
2018-10-21T23:25:07.523Z,2.23
2018-10-21T23:27:36.637Z,2.12
2018-10-21T23:30:07.063Z,2.13
2018-10-21T23:32:36.441Z,2.29
2018-10-21T23:35:06.103Z,2.11
2018-10-21T23:37:35.351Z,2.06
2018-10-21T23:40:04.822Z,2.32
2018-10-21T23:42:33.913Z,2.48
2018-10-21T23:45:03.047Z,2.32
2018-10-21T23:47:32.182Z,2.44
2018-10-21T23:50:01.823Z,2.28
2018-10-21T23:52:30.926Z,2.15
2018-10-21T23:55:00.030Z,2.09
2018-10-21T23:57:29.604Z,2.01
2018-10-21T23:59:58.753Z,1.94
